createdAt,value
2023-05-30T00:03:26.922Z,17.47
2023-05-30T00:08:29.881Z,17.34
2023-05-30T00:13:39.494Z,19.18
2023-05-30T00:18:42.571Z,19.06
2023-05-30T00:23:47.098Z,18.83
2023-05-30T00:28:49.792Z,18.50
2023-05-30T00:34:02.537Z,18.07
2023-05-30T00:39:05.446Z,18.48
2023-05-30T00:44:17.989Z,18.27
2023-05-30T00:49:20.953Z,17.99
2023-05-30T00:54:24.501Z,18.58
2023-05-30T00:59:27.188Z,18.28
2023-05-30T01:04:29.846Z,17.10
2023-05-30T01:09:32.904Z,17.79
2023-05-30T01:15:04.640Z,18.11
2023-05-30T01:20:18.865Z,17.37
2023-05-30T01:25:37.819Z,16.15
2023-05-30T01:30:45.287Z,17.80
2023-05-30T01:35:48.893Z,18.15
2023-05-30T01:41:02.409Z,17.96
2023-05-30T01:46:08.838Z,17.87
2023-05-30T01:51:16.861Z,15.98
2023-05-30T01:56:23.208Z,16.19
2023-05-30T02:01:30.149Z,17.63
2023-05-30T02:06:42.847Z,16.67
2023-05-30T02:11:45.403Z,17.55
2023-05-30T02:16:48.109Z,16.81
2023-05-30T02:21:50.874Z,17.40
2023-05-30T02:26:53.467Z,16.45
2023-05-30T02:31:56.224Z,17.55
2023-05-30T02:36:59.192Z,17.77
2023-05-30T02:42:02.307Z,17.27
2023-05-30T02:47:05.813Z,17.69
2023-05-30T02:52:10.274Z,17.67
2023-05-30T02:57:12.839Z,17.65
2023-05-30T03:02:25.552Z,16.47
2023-05-30T03:07:38.434Z,17.66
2023-05-30T03:12:41.194Z,17.80
2023-05-30T03:17:44.303Z,17.54
2023-05-30T03:22:47.464Z,17.70
2023-05-30T03:27:52.571Z,17.84
2023-05-30T03:32:55.321Z,17.53
2023-05-30T03:37:58.073Z,17.74
2023-05-30T03:43:01.488Z,18.12
2023-05-30T03:48:04.297Z,18.16
2023-05-30T03:53:07.064Z,18.15
2023-05-30T03:58:09.715Z,18.14
2023-05-30T04:03:22.497Z,18.03
2023-05-30T04:08:25.210Z,18.10
2023-05-30T04:13:27.899Z,17.32
2023-05-30T04:18:30.497Z,17.95
2023-05-30T04:23:33.357Z,17.97
2023-05-30T04:28:38.529Z,17.48
2023-05-30T04:33:41.348Z,17.91
2023-05-30T04:38:46.951Z,18.06
2023-05-30T04:44:02.124Z,17.05
2023-05-30T04:49:04.923Z,18.05
2023-05-30T04:54:07.932Z,16.45
2023-05-30T04:59:10.711Z,17.85
2023-05-30T05:04:13.770Z,17.58
2023-05-30T05:09:16.382Z,18.49
2023-05-30T05:14:19.547Z,18.70
2023-05-30T05:19:22.114Z,17.89
2023-05-30T05:24:24.718Z,18.51
2023-05-30T05:29:27.505Z,16.91
2023-05-30T05:34:30.065Z,18.60
2023-05-30T05:39:32.677Z,18.47
2023-05-30T05:44:36.582Z,18.91
2023-05-30T05:49:39.163Z,18.76
2023-05-30T05:54:41.733Z,17.66
2023-05-30T05:59:44.468Z,18.23
2023-05-30T06:04:49.067Z,17.03
2023-05-30T06:09:52.080Z,18.05
2023-05-30T06:14:55.348Z,17.38
2023-05-30T06:19:58.202Z,18.64
2023-05-30T06:25:00.892Z,18.57
2023-05-30T06:30:12.291Z,18.18
2023-05-30T06:35:15.248Z,18.90
2023-05-30T06:40:17.897Z,18.92
2023-05-30T06:45:20.995Z,19.34
2023-05-30T06:50:23.744Z,19.44
2023-05-30T06:55:26.847Z,19.51
2023-05-30T07:00:29.412Z,19.65
2023-05-30T07:05:32.285Z,20.26
2023-05-30T07:10:34.869Z,20.51
2023-05-30T07:15:37.528Z,20.09
2023-05-30T07:20:40.894Z,20.71
2023-05-30T07:25:43.549Z,20.53
2023-05-30T07:30:46.433Z,20.37
2023-05-30T07:35:49.034Z,20.04
2023-05-30T07:40:51.802Z,20.37
2023-05-30T07:45:54.515Z,22.97
2023-05-30T07:50:57.348Z,21.72
2023-05-30T07:56:00.609Z,21.85
2023-05-30T08:01:03.197Z,21.41
2023-05-30T08:06:06.054Z,22.46
2023-05-30T08:11:08.715Z,21.34
2023-05-30T08:16:13.005Z,21.85
2023-05-30T08:21:16.396Z,22.37
2023-05-30T08:26:32.262Z,23.25
2023-05-30T08:31:34.971Z,22.10
2023-05-30T08:36:37.606Z,22.98
2023-05-30T08:41:40.355Z,23.44
2023-05-30T08:46:47.066Z,24.15
2023-05-30T08:51:55.372Z,23.51
2023-05-30T08:57:06.406Z,22.73
2023-05-30T09:02:21.149Z,22.94
2023-05-30T09:07:24.596Z,22.17
2023-05-30T09:12:28.751Z,21.66
2023-05-30T09:17:35.537Z,21.95
2023-05-30T09:22:38.502Z,21.08
2023-05-30T09:27:50.586Z,20.93
2023-05-30T09:33:05.764Z,21.91
2023-05-30T09:38:08.361Z,22.37
2023-05-30T09:43:11.980Z,22.65
2023-05-30T09:48:19.788Z,22.37
2023-05-30T09:53:22.699Z,22.69
2023-05-30T09:58:25.914Z,23.24
2023-05-30T10:03:47.261Z,23.07
2023-05-30T10:08:52.922Z,22.99
2023-05-30T10:13:55.926Z,22.52
2023-05-30T10:19:01.886Z,23.22
2023-05-30T10:24:05.029Z,23.20
2023-05-30T10:29:23.278Z,23.05
2023-05-30T10:34:38.841Z,23.26
2023-05-30T10:40:03.656Z,23.02
2023-05-30T10:45:18.165Z,23.53
2023-05-30T10:50:35.977Z,23.07
2023-05-30T10:55:38.675Z,23.56
2023-05-30T11:00:41.752Z,23.13
2023-05-30T11:05:44.750Z,24.01
2023-05-30T11:10:57.576Z,24.75
2023-05-30T11:16:00.361Z,23.79
2023-05-30T11:21:03.662Z,23.31
2023-05-30T11:26:06.821Z,24.10
2023-05-30T11:31:21.855Z,24.99
2023-05-30T11:36:24.897Z,23.36
2023-05-30T11:41:28.635Z,23.05
2023-05-30T11:46:33.607Z,23.26
2023-05-30T11:51:39.918Z,22.98
2023-05-30T11:56:42.792Z,23.54
2023-05-30T12:01:51.886Z,23.97
2023-05-30T12:06:59.456Z,24.81
2023-05-30T12:12:03.033Z,24.97
2023-05-30T12:17:10.698Z,24.88
2023-05-30T12:22:14.938Z,24.45
2023-05-30T12:27:19.980Z,24.24
2023-05-30T12:32:29.915Z,23.87
2023-05-30T12:37:35.277Z,22.66
2023-05-30T12:42:40.509Z,22.37
2023-05-30T12:47:43.457Z,23.66
2023-05-30T12:52:46.952Z,23.80
2023-05-30T12:57:49.599Z,23.89
2023-05-30T13:02:53.404Z,23.66
2023-05-30T13:07:56.682Z,23.82
2023-05-30T13:13:09.376Z,23.81
2023-05-30T13:18:12.422Z,24.10
2023-05-30T13:23:25.064Z,23.95
2023-05-30T13:28:27.721Z,23.25
2023-05-30T13:33:30.417Z,24.24
2023-05-30T13:38:33.060Z,24.22
2023-05-30T13:43:35.722Z,24.05
2023-05-30T13:48:38.522Z,24.01
2023-05-30T13:58:47.335Z,24.51
2023-05-30T14:04:01.693Z,23.80
2023-05-30T14:09:06.742Z,23.84
2023-05-30T14:14:19.746Z,23.71
2023-05-30T14:19:30.617Z,23.74
2023-05-30T14:24:33.425Z,23.80
2023-05-30T14:29:36.006Z,23.65
2023-05-30T14:34:48.555Z,23.96
2023-05-30T14:39:51.565Z,24.03
2023-05-30T14:44:54.413Z,23.94
2023-05-30T14:49:57.495Z,24.80
2023-05-30T14:55:01.388Z,25.08
2023-05-30T15:00:07.818Z,25.84
2023-05-30T15:05:20.880Z,25.52
2023-05-30T15:10:24.070Z,25.25
2023-05-30T15:15:28.510Z,25.12
2023-05-30T15:20:31.885Z,24.78
2023-05-30T15:25:34.603Z,24.61
2023-05-30T15:30:37.238Z,24.46
2023-05-30T15:35:39.888Z,24.55
2023-05-30T15:40:52.501Z,24.60
2023-05-30T15:45:58.057Z,24.07
2023-05-30T15:51:01.265Z,23.64
2023-05-30T15:56:04.190Z,23.73
2023-05-30T16:01:07.235Z,23.53
2023-05-30T16:06:09.942Z,23.75
2023-05-30T16:11:13.309Z,23.68
2023-05-30T16:16:16.796Z,23.51
2023-05-30T16:21:19.536Z,23.14
2023-05-30T16:26:23.507Z,23.07
2023-05-30T16:31:26.299Z,23.58
2023-05-30T16:36:30.332Z,23.00
2023-05-30T16:41:32.885Z,23.42
2023-05-30T16:46:44.173Z,23.44
2023-05-30T16:51:47.025Z,23.12
2023-05-30T16:56:49.647Z,22.35
2023-05-30T17:02:02.402Z,22.89
2023-05-30T17:07:05.263Z,22.95
2023-05-30T17:12:08.420Z,22.84
2023-05-30T17:17:11.638Z,22.89
2023-05-30T17:22:24.733Z,22.87
2023-05-30T17:27:37.341Z,22.67
2023-05-30T17:32:40.027Z,22.29
2023-05-30T17:37:50.035Z,22.00
2023-05-30T17:42:52.699Z,22.60
2023-05-30T17:47:56.631Z,22.09
2023-05-30T17:52:59.681Z,22.13
2023-05-30T17:58:02.345Z,21.84
2023-05-30T18:03:23.468Z,22.08
2023-05-30T18:08:27.245Z,21.76
2023-05-30T18:13:29.947Z,21.85
2023-05-30T18:18:32.496Z,21.90
2023-05-30T18:23:39.339Z,21.95
2023-05-30T18:28:43.213Z,21.95
2023-05-30T18:33:46.860Z,21.81
2023-05-30T18:38:50.665Z,21.19
2023-05-30T18:43:54.810Z,21.85
2023-05-30T18:48:58.447Z,21.93
2023-05-30T18:54:05.614Z,20.03
2023-05-30T18:59:09.779Z,21.71
2023-05-30T19:04:23.214Z,21.10
2023-05-30T19:09:36.497Z,21.09
2023-05-30T19:14:42.561Z,19.86
2023-05-30T19:19:46.047Z,21.06
2023-05-30T19:24:49.612Z,20.25
2023-05-30T19:29:53.086Z,20.63
2023-05-30T19:34:56.436Z,19.71
2023-05-30T19:39:59.918Z,20.74
2023-05-30T19:45:03.308Z,20.52
2023-05-30T19:50:07.700Z,20.78
2023-05-30T19:55:19.450Z,20.19
2023-05-30T20:00:23.838Z,20.37
2023-05-30T20:05:27.226Z,20.07
2023-05-30T20:10:31.941Z,20.44
2023-05-30T20:15:35.506Z,19.68
2023-05-30T20:20:39.738Z,20.04
2023-05-30T20:25:43.087Z,19.71
2023-05-30T20:31:07.299Z,19.65
2023-05-30T20:36:20.017Z,19.60
2023-05-30T20:41:22.567Z,18.73
2023-05-30T20:46:29.899Z,19.08
2023-05-30T20:51:33.751Z,19.42
2023-05-30T20:56:46.323Z,19.34
2023-05-30T21:01:48.896Z,18.79
2023-05-30T21:07:01.999Z,18.96
2023-05-30T21:12:14.945Z,19.23
2023-05-30T21:17:18.305Z,19.72
2023-05-30T21:22:20.999Z,19.48
2023-05-30T21:27:23.601Z,19.61
2023-05-30T21:32:26.326Z,19.08
2023-05-30T21:37:28.963Z,19.11
2023-05-30T21:42:31.686Z,19.06
2023-05-30T21:47:43.900Z,18.94
2023-05-30T21:52:56.975Z,18.81
2023-05-30T21:57:59.699Z,18.57
2023-05-30T22:03:03.602Z,18.85
2023-05-30T22:08:07.264Z,19.06
2023-05-30T22:13:09.942Z,19.04
2023-05-30T22:18:12.556Z,19.00
2023-05-30T22:23:15.190Z,19.03
2023-05-30T22:28:19.128Z,18.87
2023-05-30T22:33:21.872Z,18.33
2023-05-30T22:38:34.465Z,18.65
2023-05-30T22:43:37.177Z,18.10
2023-05-30T22:48:39.744Z,17.94
2023-05-30T22:53:44.108Z,17.32
2023-05-30T22:58:46.920Z,16.59
2023-05-30T23:03:49.846Z,17.23
2023-05-30T23:08:52.540Z,17.47
2023-05-30T23:13:55.874Z,17.60
2023-05-30T23:19:08.499Z,17.91
2023-05-30T23:24:16.900Z,18.00
2023-05-30T23:29:20.110Z,17.90
2023-05-30T23:34:23.177Z,17.71
2023-05-30T23:39:25.885Z,17.50
2023-05-30T23:44:28.455Z,17.69
2023-05-30T23:49:31.400Z,17.47
2023-05-30T23:54:33.990Z,17.70
2023-05-30T23:59:36.778Z,17.85
